• Join FlightAware (Why Join?)
  • Login
  • US Flag 
03:27AM EDT


 

Airport Tracker/Info


-or-


 

Live Flight TrackerFlight Track Log ✈ DAL2124 ✈ 27-Apr-2012 ✈ KMSY - KATL

Flight Track Log - Related Links

Times and Time Zones

All times are in EDT time to prevent confusion due to time zone crossing. See the DAL2124 flight status page for this flight to view local times or setup timezone preferences in your user account.

Time Position Orientation Groundspeed Altitude Reporting Facility
EDT Latitude Longitude Course Direction KTS MPH feet Rate Location/Type
08:45AM 29.9694 -90.2583 190° South 166 191 1,200  Level Houston Center
08:46AM 29.9444 -90.2636 145° Southeast 166 191 2,500 2,340 Climbing Houston Center
08:47AM 29.8942 -90.2233 47° Northeast 216 249 5,500 2,760 Climbing Houston Center
08:48AM 29.9456 -90.1603 31° Northeast 155 178 8,600 2,700 Climbing Houston Center
08:49AM 30.0161 -90.1114 33° Northeast 189 217 11,000 2,100 Climbing Houston Center
08:50AM 30.1008 -90.0478 34° Northeast 293 337 12,800 2,100 Climbing Houston Center
08:51AM 30.1897 -89.9792 33° Northeast 340 391 15,300 2,460 Climbing Houston Center
08:52AM 30.2850 -89.9078 32° Northeast 380 437 17,800 2,340 Climbing Houston Center
08:53AM 30.3925 -89.8289 35° Northeast 392 451 20,000 1,980 Climbing Houston Center
08:54AM 30.4936 -89.7475 44° Northeast 426 490 21,900 1,800 Climbing Houston Center
08:55AM 30.5858 -89.6444 48° Northeast 445 512 23,700 1,800 Climbing Houston Center
08:56AM 30.6697 -89.5342 30° Northeast 450 518 25,500 2,100 Climbing Houston Center
08:57AM 30.7814 -89.4594 24° Northeast 450 518 27,900 2,580 Climbing Houston Center
08:58AM 30.8908 -89.4014 26° Northeast 442 509 30,700 1,500 Climbing Houston Center
08:59AM 31.0025 -89.3381 25° Northeast 430 495 31,000 120 Climbing Houston Center
09:00AM 31.1164 -89.2772 35° Northeast 436 502 31,000 420 Level Houston Center
09:01AM 31.2150 -89.1972 74° East 436 502 31,900 960 Climbing Houston Center
09:02AM 31.2497 -89.0508 79° East 425 489 33,000 540 Climbing Houston Center
09:03AM 31.2758 -88.8994 79° East 442 509 33,000  Level Houston Center
09:04AM 31.3000 -88.7506 79° East 455 524 33,000  Level Houston Center
09:05AM 31.3258 -88.5969 102° East 468 539 33,000  Level Houston Center
09:08AM 31.2583 -88.2264 91° East 494 568 33,000  Level Atlanta Center
09:09AM 31.2550 -88.0781 57° Northeast 473 544 33,000  Level Atlanta Center
09:10AM 31.3147 -87.9714 53° Northeast 437 503 33,000  Level Atlanta Center
09:11AM 31.3981 -87.8411 54° Northeast 466 536 33,000  Level Atlanta Center
09:12AM 31.4617 -87.7392 53° Northeast 447 514 33,000  Level Atlanta Center
09:13AM 31.5361 -87.6228 51° Northeast 447 514 33,000  Level Atlanta Center
09:14AM 31.6167 -87.5042 54° Northeast 459 528 33,000  Level Atlanta Center
09:15AM 31.6953 -87.3753 53° Northeast 471 542 33,000  Level Atlanta Center
09:16AM 31.7844 -87.2369 52° Northeast 477 549 33,000  Level Atlanta Center
09:17AM 31.8669 -87.1103 53° Northeast 482 555 33,000  Level Atlanta Center
09:18AM 31.9453 -86.9881 53° Northeast 477 549 33,000  Level Atlanta Center
09:19AM 32.0253 -86.8608 53° Northeast 472 543 33,000  Level Atlanta Center
09:20AM 32.1053 -86.7358 53° Northeast 471 542 33,000  Level Atlanta Center
09:21AM 32.1831 -86.6131 52° Northeast 471 542 33,000  Level Atlanta Center
09:22AM 32.2650 -86.4878 55° Northeast 477 549 33,000 -480 Level Atlanta Center
09:23AM 32.3428 -86.3572 56° Northeast 477 549 32,100 -2,100 Descending Atlanta Center
09:24AM 32.4139 -86.2336 53° Northeast 471 542 28,800 -3,000 Descending Atlanta Center
09:25AM 32.4953 -86.1050 53° Northeast 476 548 26,100 -2,520 Descending Atlanta Center
09:26AM 32.5767 -85.9789 54° Northeast 476 548 23,800 -1,800 Descending Atlanta Center
09:27AM 32.6494 -85.8594 54° Northeast 460 529 22,600 -1,200 Descending Atlanta Center
09:28AM 32.7222 -85.7400 53° Northeast 449 517 21,400 -840 Descending Atlanta Center
09:29AM 32.7967 -85.6228 55° Northeast 442 509 21,000 -240 Descending Atlanta Center
09:30AM 32.8650 -85.5078 53° Northeast 435 501 21,000  Level Atlanta Center
09:31AM 32.9353 -85.3950 55° Northeast 427 491 21,000 -720 Level Atlanta Center
09:32AM 33.0053 -85.2772 52° Northeast 427 491 19,600 -1,560 Descending Atlanta Center
09:33AM 33.0689 -85.1817 48° Northeast 423 487 17,900 -1,860 Descending Atlanta Center
09:34AM 33.1492 -85.0758 47° Northeast 402 463 15,900 -2,160 Descending Atlanta Center
09:35AM 33.2250 -84.9775 49° Northeast 391 450 13,600 -1,680 Descending Atlanta Center
09:36AM 33.2903 -84.8886 47° Northeast 373 429 12,600 -840 Descending Atlanta Center
09:37AM 33.3556 -84.8047 49° Northeast 349 402 12,000 -300 Descending Atlanta Center
09:38AM 33.4103 -84.7281 49° Northeast 319 367 12,000  Level Atlanta Center
09:39AM 33.4608 -84.6589 47° Northeast 287 330 12,000  Level Atlanta Center
09:40AM 33.5111 -84.5944 63° Northeast 271 312 12,000 -300 Level Atlanta Center
09:41AM 33.5450 -84.5147 91° East 266 306 11,500 -1,020 Descending Atlanta Center
09:42AM 33.5431 -84.4225 85° East 258 297 10,000 -1,680 Descending Atlanta Center
09:42AM 33.5500 -84.3333 90° East 267 307 8,400 -1,740 Descending Atlanta TRACON
09:43AM 33.5500 -84.2500 51° Northeast 259 298 6,700 -1,620 Descending Atlanta TRACON
09:44AM 33.5833 -84.2000 301° West 235 270 5,200 -1,500 Descending Atlanta TRACON
09:45AM 33.6167 -84.2667 292° West 182 209 3,700 -1,260 Descending Atlanta TRACON
09:46AM 33.6333 -84.3167 270° West 172 198 2,700 -900 Descending Atlanta TRACON
09:47AM 33.6333 -84.3667 270° West 125 144 2,000 -720 Descending Atlanta TRACON
09:48AM 33.6333 -84.4000 270° West 128 147 1,300 -720 Descending Atlanta TRACON